Time;durP1;ratioP1;P1;durP2;ratioP2;P2;SDS_P1;SDS_P2;PMS_P1;PMS_P2;Temp;Humidity;BMP_temperature;BMP_pressure;BME280_temperature;BME280_humidity;BME280_pressure;Samples;Min_cycle;Max_cycle;Signal;HPM_P1;HPM_P2
2023/02/01 00:02:54;;;;;;;4.80;3.70;;;;;;;3.42;100.00;99360.95;105239;1260;103524;-73
2023/02/01 00:05:39;;;;;;;5.20;3.10;;;;;;;3.43;100.00;99364.05;105424;1269;99279;-73
2023/02/01 00:08:26;;;;;;;4.50;2.40;;;;;;;3.44;100.00;99369.13;105255;1260;98923;-72
2023/02/01 00:11:11;;;;;;;4.80;2.70;;;;;;;3.46;100.00;99371.45;105192;1258;98021;-74
2023/02/01 00:13:57;;;;;;;3.10;1.80;;;;;;;3.47;100.00;99370.89;105279;1260;98426;-74
2023/02/01 00:16:43;;;;;;;2.20;1.80;;;;;;;3.50;100.00;99370.04;105131;1264;101469;-73
2023/02/01 00:19:29;;;;;;;3.10;2.00;;;;;;;3.52;100.00;99377.73;105206;1256;100422;-74
2023/02/01 00:22:14;;;;;;;2.70;1.90;;;;;;;3.54;100.00;99381.65;105182;1260;97876;-73
2023/02/01 00:25:00;;;;;;;4.70;2.10;;;;;;;3.55;100.00;99388.39;105093;1258;99254;-73
2023/02/01 00:27:50;;;;;;;4.80;1.70;;;;;;;3.56;100.00;99394.64;105147;1257;99023;-74
2023/02/01 00:30:35;;;;;;;2.10;1.40;;;;;;;3.57;100.00;99390.66;105911;1258;101326;-73
2023/02/01 00:33:21;;;;;;;3.50;1.60;;;;;;;3.56;100.00;99392.35;105224;1260;100514;-73
2023/02/01 00:36:13;;;;;;;5.10;1.60;;;;;;;3.54;100.00;99397.45;105117;1258;97963;-73
2023/02/01 00:38:59;;;;;;;2.70;1.10;;;;;;;3.53;100.00;99399.38;105178;1260;97974;-73
2023/02/01 00:41:44;;;;;;;7.40;1.30;;;;;;;3.52;100.00;99398.20;105108;1263;98495;-73
2023/02/01 00:44:32;;;;;;;9.90;2.00;;;;;;;3.52;100.00;99399.70;105191;1264;102666;-73
2023/02/01 00:47:19;;;;;;;3.40;1.10;;;;;;;3.49;100.00;99395.92;106523;1257;101302;-73
2023/02/01 00:50:04;;;;;;;3.90;1.30;;;;;;;3.47;100.00;99396.33;105116;1260;98042;-73
2023/02/01 00:52:50;;;;;;;4.10;1.40;;;;;;;3.45;100.00;99391.44;105184;1261;97910;-73
2023/02/01 00:55:36;;;;;;;4.70;1.90;;;;;;;3.44;100.00;99386.88;105168;1257;98475;-73
2023/02/01 00:58:22;;;;;;;4.20;1.00;;;;;;;3.41;99.98;99388.86;105167;1261;103716;-73
2023/02/01 01:01:13;;;;;;;3.30;1.30;;;;;;;3.39;99.84;99391.63;105465;1260;99894;-73
2023/02/01 01:03:59;;;;;;;4.20;1.30;;;;;;;3.36;99.57;99396.89;105465;1260;97881;-72
2023/02/01 01:06:45;;;;;;;3.40;1.10;;;;;;;3.33;99.66;99400.73;105135;1260;97983;-74
2023/02/01 01:09:31;;;;;;;4.90;1.40;;;;;;;3.33;99.68;99399.77;105194;1257;99607;-73
2023/02/01 01:12:16;;;;;;;3.60;1.70;;;;;;;3.32;99.53;99398.62;105088;1264;102563;-73
2023/02/01 01:15:02;;;;;;;6.60;2.10;;;;;;;3.30;99.23;99402.11;105052;1264;100351;-73
2023/02/01 01:17:48;;;;;;;5.00;1.50;;;;;;;3.29;99.17;99401.95;105187;1260;97884;-73
2023/02/01 01:20:36;;;;;;;9.50;1.90;;;;;;;3.28;99.23;99401.34;105147;1264;97997;-73
2023/02/01 01:23:21;;;;;;;5.70;1.80;;;;;;;3.26;98.90;99398.05;105060;1273;98477;-73
2023/02/01 01:26:09;;;;;;;7.90;2.20;;;;;;;3.24;98.70;99394.23;105230;1257;101985;-74
2023/02/01 01:28:57;;;;;;;11.80;2.60;;;;;;;3.21;98.39;99400.90;105131;1262;100408;-74
2023/02/01 01:31:42;;;;;;;7.70;1.80;;;;;;;3.18;98.14;99403.67;105158;1260;98288;-73
2023/02/01 01:34:28;;;;;;;6.30;2.80;;;;;;;3.15;97.86;99407.19;105162;1257;98492;-72
2023/02/01 01:37:14;;;;;;;11.30;2.70;;;;;;;3.12;97.74;99414.84;105301;1260;98469;-73
2023/02/01 01:39:59;;;;;;;11.60;2.70;;;;;;;3.10;97.61;99419.34;105310;1257;102263;-73
2023/02/01 01:42:45;;;;;;;8.70;2.70;;;;;;;3.10;97.57;99424.31;105204;1264;99065;-73
2023/02/01 01:45:34;;;;;;;6.90;2.40;;;;;;;3.10;97.58;99426.92;105495;1260;99219;-74
2023/02/01 01:48:26;;;;;;;6.60;2.60;;;;;;;3.12;97.58;99428.30;105091;1258;98091;-73
2023/02/01 01:51:17;;;;;;;6.80;2.60;;;;;;;3.15;97.37;99430.27;105040;1257;98535;-73
2023/02/01 01:54:11;;;;;;;5.50;2.80;;;;;;;3.17;97.33;99431.83;105172;1257;102592;-73
2023/02/01 01:57:02;;;;;;;11.20;4.30;;;;;;;3.19;97.02;99426.31;105063;1258;110222;-73
2023/02/01 01:59:58;;;;;;;7.40;2.70;;;;;;;3.21;96.94;99433.02;105137;1270;98067;-73
2023/02/01 02:02:47;;;;;;;11.70;4.00;;;;;;;3.22;96.77;99428.95;105173;1261;97947;-73
2023/02/01 02:05:32;;;;;;;9.00;2.90;;;;;;;3.25;96.67;99432.21;105282;1257;98414;-73
2023/02/01 02:08:20;;;;;;;9.40;2.80;;;;;;;3.27;96.65;99435.19;105199;1257;103701;-73
2023/02/01 02:11:05;;;;;;;7.40;2.30;;;;;;;3.29;96.50;99431.54;105150;1258;99615;-73
2023/02/01 02:13:54;;;;;;;8.00;2.10;;;;;;;3.30;96.36;99430.35;105214;1261;99071;-73
2023/02/01 02:16:59;;;;;;;8.80;3.20;;;;;;;3.31;96.32;99435.58;105175;1261;99132;-72
2023/02/01 02:19:55;;;;;;;6.90;3.20;;;;;;;3.32;96.37;99435.27;105159;1261;97883;-72
2023/02/01 02:22:52;;;;;;;7.60;2.20;;;;;;;3.32;96.31;99441.95;105165;1261;102618;-73
2023/02/01 02:25:56;;;;;;;13.40;3.80;;;;;;;3.32;96.55;99441.86;105146;1260;101608;-74
2023/02/01 02:28:57;;;;;;;10.50;2.50;;;;;;;3.32;96.78;99439.86;105051;1257;97959;-74
2023/02/01 02:32:18;;;;;;;10.20;2.40;;;;;;;3.31;96.63;99441.54;105085;1265;97976;-73
2023/02/01 02:35:21;;;;;;;16.60;5.10;;;;;;;3.31;96.64;99442.42;105035;1257;97943;-73
2023/02/01 02:38:19;;;;;;;6.60;2.60;;;;;;;3.31;96.67;99447.59;105180;1258;102588;-73
2023/02/01 02:48:03;;;;;;;12.30;3.10;;;;;;;3.31;96.66;99452.65;105239;1260;98077;-73
2023/02/01 03:06:33;;;;;;;12.00;2.50;;;;;;;3.29;97.46;99456.45;105171;1258;98479;-73
2023/02/01 03:09:26;;;;;;;13.40;2.70;;;;;;;3.29;97.67;99460.98;105116;1260;102106;-73
2023/02/01 03:15:24;;;;;;;11.40;2.70;;;;;;;3.28;97.94;99463.92;105130;1270;99132;-73
2023/02/01 03:18:16;;;;;;;11.70;3.10;;;;;;;3.29;97.79;99463.52;106231;1260;99269;-74
2023/02/01 03:21:08;;;;;;;12.80;3.20;;;;;;;3.31;97.82;99467.73;105059;1257;98504;-73
2023/02/01 03:23:59;;;;;;;16.30;3.80;;;;;;;3.32;97.73;99464.91;105184;1256;101888;-72
2023/02/01 03:26:57;;;;;;;11.30;3.00;;;;;;;3.33;97.65;99463.52;105283;1257;100495;-74
2023/02/01 03:29:53;;;;;;;12.80;2.80;;;;;;;3.34;97.64;99458.92;105272;1257;98029;-73
2023/02/01 03:33:00;;;;;;;13.50;3.30;;;;;;;3.35;97.70;99469.88;105239;1259;99327;-74
2023/02/01 03:36:14;;;;;;;15.60;2.70;;;;;;;3.35;97.54;99468.42;105304;1257;99110;-73
2023/02/01 03:39:16;;;;;;;14.30;2.70;;;;;;;3.36;97.58;99470.63;105321;1257;101336;-73
2023/02/01 03:42:13;;;;;;;12.50;3.00;;;;;;;3.37;97.52;99473.34;105054;1261;99268;-73
2023/02/01 03:45:03;;;;;;;11.40;2.70;;;;;;;3.38;97.39;99471.69;105053;1261;98259;-72
2023/02/01 03:47:54;;;;;;;12.40;2.80;;;;;;;3.38;97.27;99472.39;105097;1258;99344;-74
2023/02/01 03:50:46;;;;;;;12.90;3.50;;;;;;;3.38;97.32;99479.23;105168;1261;97934;-73
2023/02/01 03:53:36;;;;;;;13.40;2.70;;;;;;;3.37;97.18;99485.33;105287;1261;102673;-73
2023/02/01 03:56:25;;;;;;;17.50;2.90;;;;;;;3.38;97.13;99484.89;105179;1260;99081;-73
2023/02/01 03:59:11;;;;;;;13.80;3.20;;;;;;;3.38;96.89;99486.31;105097;1257;99301;-73
2023/02/01 04:01:57;;;;;;;18.60;3.40;;;;;;;3.38;96.84;99491.23;105367;1259;97957;-74
2023/02/01 04:04:42;;;;;;;14.00;3.10;;;;;;;3.38;96.73;99485.58;105119;1257;98508;-73
2023/02/01 04:07:28;;;;;;;11.40;4.20;;;;;;;3.38;96.79;99483.64;105235;1260;102535;-73
2023/02/01 04:10:14;;;;;;;8.40;2.40;;;;;;;3.38;96.71;99487.91;105380;1259;100117;-73
2023/02/01 04:13:00;;;;;;;10.00;2.50;;;;;;;3.38;96.59;99485.21;105165;1260;99238;-74
2023/02/01 04:15:49;;;;;;;15.70;3.80;;;;;;;3.38;96.60;99480.08;105206;1261;97976;-72
2023/02/01 04:18:35;;;;;;;11.00;2.90;;;;;;;3.38;96.52;99476.98;105275;1257;97967;-73
2023/02/01 04:21:21;;;;;;;10.70;2.90;;;;;;;3.37;96.42;99481.98;105205;1258;101471;-73
2023/02/01 04:24:07;;;;;;;13.40;2.50;;;;;;;3.37;96.15;99483.27;105154;1259;100365;-73
2023/02/01 04:26:52;;;;;;;12.90;2.70;;;;;;;3.36;96.20;99483.20;105223;1258;98978;-74
2023/02/01 04:29:38;;;;;;;18.50;4.10;;;;;;;3.35;96.20;99488.93;105254;1257;97953;-73
2023/02/01 04:32:23;;;;;;;17.00;3.50;;;;;;;3.36;96.23;99489.92;105166;1257;100304;-73
2023/02/01 04:35:09;;;;;;;11.50;2.90;;;;;;;3.35;96.02;99489.86;105265;1260;101346;-73
2023/02/01 04:37:54;;;;;;;7.30;2.40;;;;;;;3.34;96.17;99491.34;105236;1259;100708;-73
2023/02/01 04:40:40;;;;;;;13.20;3.30;;;;;;;3.34;95.99;99491.83;105180;1259;99289;-73
2023/02/01 04:43:26;;;;;;;10.90;3.80;;;;;;;3.34;95.92;99493.95;105118;1261;97984;-73
2023/02/01 04:46:11;;;;;;;11.80;3.30;;;;;;;3.35;95.88;99494.76;105528;1257;97979;-73
2023/02/01 04:48:57;;;;;;;15.10;3.40;;;;;;;3.36;95.89;99495.38;105472;1256;101449;-73
2023/02/01 04:51:43;;;;;;;14.00;3.60;;;;;;;3.36;95.76;99496.61;105471;1258;100276;-74
2023/02/01 04:54:28;;;;;;;11.10;3.60;;;;;;;3.36;95.60;99500.14;105319;1257;98972;-73
2023/02/01 04:57:14;;;;;;;13.60;3.00;;;;;;;3.35;95.75;99501.61;105056;1258;97996;-74
2023/02/01 05:00:00;;;;;;;13.00;3.00;;;;;;;3.35;95.74;99505.34;105237;1259;97872;-73
2023/02/01 05:02:45;;;;;;;14.30;3.30;;;;;;;3.35;95.58;99498.42;105214;1259;101349;-73
2023/02/01 05:05:31;;;;;;;16.40;3.50;;;;;;;3.36;95.53;99494.25;105122;1257;99237;-73
2023/02/01 05:08:16;;;;;;;15.50;3.80;;;;;;;3.37;95.46;99492.46;105091;1258;99270;-73
2023/02/01 05:11:03;;;;;;;19.20;3.40;;;;;;;3.36;95.46;99489.85;105414;1258;97999;-73
2023/02/01 05:13:48;;;;;;;14.70;3.10;;;;;;;3.37;95.34;99489.29;105419;1258;97912;-73
2023/02/01 05:16:34;;;;;;;20.30;3.80;;;;;;;3.36;95.24;99483.83;105458;1259;102617;-73
2023/02/01 05:19:20;;;;;;;11.50;2.80;;;;;;;3.37;95.42;99490.98;105271;1257;100583;-73
2023/02/01 05:22:05;;;;;;;17.20;3.60;;;;;;;3.37;95.31;99487.84;105163;1261;98973;-73
2023/02/01 05:24:51;;;;;;;14.50;3.70;;;;;;;3.36;95.31;99483.89;105208;1258;97999;-73
2023/02/01 05:27:36;;;;;;;18.90;3.40;;;;;;;3.33;95.31;99483.64;105168;1257;98478;-73
2023/02/01 05:30:22;;;;;;;17.80;2.90;;;;;;;3.32;95.36;99486.21;105159;1257;101537;-73
2023/02/01 05:33:08;;;;;;;17.30;3.40;;;;;;;3.32;95.29;99486.45;105208;1261;99074;-73
2023/02/01 05:35:53;;;;;;;17.60;3.30;;;;;;;3.31;95.36;99489.33;105161;1273;99132;-74
2023/02/01 05:38:39;;;;;;;19.70;3.50;;;;;;;3.30;95.41;99493.52;105128;1261;97946;-74
2023/02/01 05:41:25;;;;;;;14.10;3.10;;;;;;;3.30;95.60;99490.59;105145;1258;98399;-73
2023/02/01 05:44:11;;;;;;;10.90;2.80;;;;;;;3.28;95.51;99488.81;105168;1259;102608;-73
2023/02/01 05:46:56;;;;;;;14.20;3.30;;;;;;;3.27;95.71;99489.25;105100;1259;99574;-73
2023/02/01 05:49:42;;;;;;;15.80;3.30;;;;;;;3.28;95.77;99483.02;105184;1257;99482;-73
2023/02/01 05:52:27;;;;;;;15.60;3.20;;;;;;;3.28;95.73;99484.80;105079;1257;98376;-73
2023/02/01 05:55:13;;;;;;;12.30;2.80;;;;;;;3.25;95.69;99486.30;105248;1257;98915;-73
2023/02/01 05:57:58;;;;;;;13.90;4.30;;;;;;;3.23;95.66;99484.45;105206;1257;103801;-73
2023/02/01 06:00:44;;;;;;;12.60;3.10;;;;;;;3.21;95.56;99488.88;105110;1261;99076;-73
2023/02/01 06:03:30;;;;;;;18.60;3.20;;;;;;;3.20;95.76;99485.48;105318;1257;99049;-73
2023/02/01 06:06:15;;;;;;;18.50;4.20;;;;;;;3.20;95.71;99482.36;105205;1259;98051;-73
2023/02/01 06:09:01;;;;;;;15.80;3.10;;;;;;;3.19;95.77;99481.59;105383;1259;98583;-73
2023/02/01 06:11:46;;;;;;;13.90;3.20;;;;;;;3.19;95.67;99481.55;105158;1259;102656;-73
2023/02/01 06:14:32;;;;;;;8.40;2.90;;;;;;;3.18;95.75;99476.32;105362;1260;99255;-73
2023/02/01 06:17:18;;;;;;;13.40;3.80;;;;;;;3.19;95.68;99477.67;105171;1259;98048;-73
2023/02/01 06:20:06;;;;;;;16.00;3.00;;;;;;;3.19;95.69;99482.59;105364;1257;98154;-73
2023/02/01 06:22:52;;;;;;;15.70;3.90;;;;;;;3.20;95.80;99484.42;106833;1258;97870;-73
2023/02/01 06:25:37;;;;;;;15.70;3.40;;;;;;;3.21;95.65;99486.27;105285;1259;102087;-74
2023/02/01 06:28:23;;;;;;;17.40;4.60;;;;;;;3.22;95.62;99489.20;105123;1260;100422;-73
2023/02/01 06:31:10;;;;;;;15.00;3.60;;;;;;;3.23;95.67;99483.09;106619;1257;98019;-73
2023/02/01 06:33:55;;;;;;;10.30;2.70;;;;;;;3.22;95.63;99479.55;105059;1259;97931;-74
2023/02/01 06:36:40;;;;;;;9.40;3.00;;;;;;;3.24;95.75;99478.36;105246;1257;99234;-72
2023/02/01 06:39:28;;;;;;;19.30;3.80;;;;;;;3.25;95.74;99481.03;105245;1258;102027;-74
2023/02/01 06:42:14;;;;;;;18.00;3.30;;;;;;;3.26;95.73;99485.20;105199;1260;100882;-73
2023/02/01 06:44:59;;;;;;;13.60;3.20;;;;;;;3.27;95.57;99482.79;105282;1260;98923;-73
2023/02/01 06:47:45;;;;;;;11.60;2.70;;;;;;;3.26;95.40;99474.77;105421;1260;97981;-73
2023/02/01 06:50:31;;;;;;;14.20;3.20;;;;;;;3.25;95.67;99476.46;105424;1259;98363;-73
2023/02/01 06:53:16;;;;;;;14.10;3.80;;;;;;;3.24;95.41;99473.95;105455;1261;101917;-73
2023/02/01 06:56:02;;;;;;;13.10;2.90;;;;;;;3.23;95.58;99477.77;105196;1261;99293;-73
2023/02/01 06:58:48;;;;;;;11.30;3.20;;;;;;;3.24;95.79;99475.71;105213;1261;97962;-72
2023/02/01 07:01:34;;;;;;;13.80;3.70;;;;;;;3.25;95.69;99474.72;105261;1259;97983;-73
2023/02/01 07:04:20;;;;;;;13.40;3.20;;;;;;;3.27;95.67;99473.84;105236;1257;97899;-73
2023/02/01 07:07:05;;;;;;;15.70;3.00;;;;;;;3.27;95.67;99474.26;105379;1257;101361;-73
2023/02/01 07:09:51;;;;;;;19.10;5.80;;;;;;;3.28;95.73;99472.96;105290;1259;100342;-74
2023/02/01 07:12:36;;;;;;;15.00;4.10;;;;;;;3.29;95.54;99474.58;105221;1255;99235;-73
2023/02/01 07:15:22;;;;;;;18.60;4.20;;;;;;;3.30;95.51;99474.55;105375;1257;98014;-73
2023/02/01 07:18:07;;;;;;;16.00;4.00;;;;;;;3.31;95.40;99473.52;105354;1259;99684;-73
2023/02/01 07:20:53;;;;;;;14.60;4.80;;;;;;;3.32;95.49;99477.41;105323;1256;102580;-73
2023/02/01 07:23:39;;;;;;;18.00;3.80;;;;;;;3.34;95.36;99480.03;105352;1256;100376;-72
2023/02/01 07:26:24;;;;;;;13.80;4.20;;;;;;;3.36;95.25;99482.25;105210;1261;99334;-73
2023/02/01 07:29:10;;;;;;;14.90;2.90;;;;;;;3.39;95.43;99488.63;105186;1256;99219;-72
2023/02/01 07:31:55;;;;;;;12.70;3.60;;;;;;;3.42;95.24;99485.71;105267;1259;97898;-74
2023/02/01 07:34:41;;;;;;;13.30;3.80;;;;;;;3.44;95.19;99489.67;105277;1257;102330;-73
2023/02/01 07:37:27;;;;;;;15.40;4.00;;;;;;;3.46;95.12;99488.55;105351;1261;100559;-73
2023/02/01 07:40:12;;;;;;;50.20;19.10;;;;;;;3.48;95.15;99484.80;105397;1259;98272;-73
2023/02/01 07:42:58;;;;;;;35.20;10.00;;;;;;;3.50;95.09;99491.48;105344;1259;97966;-72
2023/02/01 07:45:50;;;;;;;22.50;6.70;;;;;;;3.51;94.93;99495.25;105420;1256;99813;-73
2023/02/01 07:48:36;;;;;;;;;;;;;;;3.52;94.81;99492.90;105233;1260;102606;-73
2023/02/01 07:51:21;;;;;;;40.70;17.10;;;;;;;3.51;94.81;99492.61;105237;1258;99357;-73
2023/02/01 07:54:06;;;;;;;35.30;14.70;;;;;;;3.52;94.82;99485.08;105216;1259;97909;-74
2023/02/01 07:56:52;;;;;;;20.60;9.30;;;;;;;3.53;94.88;99480.16;105321;1260;98101;-72
2023/02/01 08:01:19;;;;;;;16.90;5.40;;;;;;;3.55;94.91;99480.48;105208;1259;98042;-74
2023/02/01 08:02:44;;;;;;;26.50;12.20;;;;;;;3.57;94.79;99474.48;106032;1257;102773;-77
2023/02/01 08:05:30;;;;;;;45.70;18.60;;;;;;;3.59;94.78;99477.46;105354;1259;284984;-76
2023/02/01 08:08:16;;;;;;;28.90;13.50;;;;;;;3.60;94.73;99477.13;105543;1259;99344;-76
2023/02/01 08:11:04;;;;;;;22.20;9.00;;;;;;;3.62;94.98;99472.99;105535;1259;97981;-76
2023/02/01 08:13:50;;;;;;;20.60;7.90;;;;;;;3.64;94.94;99478.77;105564;1259;97960;-75
2023/02/01 08:16:37;;;;;;;33.50;13.70;;;;;;;3.66;94.95;99475.89;106078;1255;101343;-81
2023/02/01 08:19:38;;;;;;;25.00;8.80;;;;;;;3.68;94.85;99480.28;105416;1263;99087;-74
2023/02/01 08:22:25;;;;;;;17.10;5.90;;;;;;;3.70;94.55;99480.25;105579;1259;98993;-84
2023/02/01 08:25:14;;;;;;;17.80;4.20;;;;;;;3.71;94.44;99479.91;106106;1257;97970;-84
2023/02/01 08:28:03;;;;;;;16.30;5.10;;;;;;;3.74;94.41;99482.74;106256;1257;97966;-83
2023/02/01 08:30:49;;;;;;;17.90;5.10;;;;;;;3.78;94.34;99487.48;105707;1259;101253;-84
2023/02/01 08:33:35;;;;;;;9.10;3.30;;;;;;;3.80;94.26;99486.84;105995;1257;99189;-76
2023/02/01 08:36:23;;;;;;;16.70;5.20;;;;;;;3.83;94.17;99487.27;105402;1259;97976;-76
2023/02/01 08:39:10;;;;;;;28.50;5.30;;;;;;;3.83;93.94;99482.77;105459;1258;97986;-75
2023/02/01 08:44:59;;;;;;;19.90;5.70;;;;;;;3.85;93.59;99489.66;105565;1259;101461;-75
2023/02/01 08:47:46;;;;;;;19.00;6.60;;;;;;;3.87;93.72;99490.48;105604;1259;100003;-74
2023/02/01 08:50:32;;;;;;;25.80;8.50;;;;;;;3.89;93.68;99487.04;105520;1257;99026;-75
2023/02/01 08:53:18;;;;;;;14.20;5.50;;;;;;;3.92;93.60;99484.84;105455;1257;97951;-74
2023/02/01 08:56:04;;;;;;;19.40;4.80;;;;;;;3.94;93.45;99490.06;105267;1264;98476;-76
2023/02/01 08:58:49;;;;;;;21.30;7.00;;;;;;;3.97;93.41;99495.45;105420;1256;101363;-75
2023/02/01 09:01:34;;;;;;;23.60;8.50;;;;;;;4.00;93.53;99494.71;105367;1259;102052;-75
2023/02/01 09:04:20;;;;;;;30.30;12.20;;;;;;;4.05;93.56;99494.63;105651;1259;98417;-82
2023/02/01 09:07:07;;;;;;;16.40;5.50;;;;;;;4.11;93.54;99502.28;106465;1262;97974;-80
2023/02/01 09:09:54;;;;;;;13.30;5.80;;;;;;;4.16;93.42;99499.61;106317;1257;98083;-82
2023/02/01 09:12:39;;;;;;;17.90;4.30;;;;;;;4.20;93.20;99495.42;106144;1260;101895;-73
2023/02/01 09:18:37;;;;;;;11.80;4.80;;;;;;;4.26;93.03;99501.61;106074;1262;99120;-85
2023/02/01 09:21:32;;;;;;;20.40;5.70;;;;;;;4.26;92.60;99501.95;106258;1263;98032;-85
2023/02/01 09:24:21;;;;;;;17.60;4.90;;;;;;;4.25;92.70;99503.29;106161;1263;98496;-86
2023/02/01 09:27:35;;;;;;;16.70;5.00;;;;;;;4.25;92.49;99500.46;106518;1262;103703;-89
2023/02/01 09:30:20;;;;;;;19.70;5.40;;;;;;;4.25;92.45;99499.98;106149;1255;101409;-82
2023/02/01 09:33:05;;;;;;;12.20;6.50;;;;;;;4.26;92.46;99500.39;105549;1263;98531;-80
2023/02/01 09:35:59;;;;;;;21.40;8.30;;;;;;;4.26;92.13;99491.38;105468;1261;97965;-78
2023/02/01 09:38:45;;;;;;;32.20;12.80;;;;;;;4.27;92.04;99492.67;105797;1259;98567;-76
2023/02/01 09:41:52;;;;;;;26.80;8.50;;;;;;;4.29;91.84;99489.28;105552;1257;103112;-76
2023/02/01 09:44:56;;;;;;;27.40;9.40;;;;;;;4.30;91.74;99488.28;105662;1259;99662;-77
2023/02/01 09:47:48;;;;;;;24.20;7.90;;;;;;;4.31;91.77;99487.61;105531;1259;97970;-77
2023/02/01 09:50:40;;;;;;;18.60;6.70;;;;;;;4.33;91.79;99484.55;105420;1257;98677;-78
2023/02/01 09:53:34;;;;;;;30.70;10.20;;;;;;;4.35;91.71;99481.46;105578;1257;98718;-78
2023/02/01 09:56:28;;;;;;;16.60;7.60;;;;;;;4.37;91.78;99481.29;105509;1258;101352;-77
2023/02/01 09:59:38;;;;;;;17.20;7.00;;;;;;;4.37;91.51;99483.87;105598;1272;100384;-76
2023/02/01 10:02:26;;;;;;;19.10;6.40;;;;;;;4.38;91.21;99484.90;105581;1263;97891;-73
2023/02/01 10:05:37;;;;;;;19.10;7.10;;;;;;;4.39;91.32;99483.88;105400;1257;98268;-82
2023/02/01 10:09:02;;;;;;;17.50;7.50;;;;;;;4.40;91.34;99490.15;106199;1257;98414;-83
2023/02/01 10:11:50;;;;;;;15.30;4.80;;;;;;;4.40;91.20;99485.52;106139;1259;102052;-82
2023/02/01 10:15:03;;;;;;;21.10;6.30;;;;;;;4.39;91.12;99482.57;106100;1258;100065;-77
2023/02/01 10:17:56;;;;;;;16.40;6.00;;;;;;;4.38;91.12;99482.58;105679;1257;98636;-82
2023/02/01 10:21:20;;;;;;;17.20;6.40;;;;;;;4.37;90.95;99486.38;105875;1257;97966;-74
2023/02/01 10:24:18;;;;;;;20.90;6.60;;;;;;;4.36;91.07;99484.93;105640;1261;98708;-77
2023/02/01 10:27:27;;;;;;;21.80;7.90;;;;;;;4.36;91.23;99485.98;105443;1259;102206;-79
2023/02/01 10:30:12;;;;;;;50.00;21.40;;;;;;;4.35;91.15;99480.56;105346;1259;99824;-73
2023/02/01 10:33:15;;;;;;;28.80;11.70;;;;;;;4.35;91.00;99479.67;105119;1259;97964;-73
2023/02/01 10:36:21;;;;;;;17.90;6.80;;;;;;;4.37;91.13;99477.35;105351;1259;97961;-79
2023/02/01 10:39:11;;;;;;;21.20;6.70;;;;;;;4.38;91.05;99477.31;106323;1259;98084;-80
2023/02/01 10:41:57;;;;;;;23.40;5.80;;;;;;;4.38;91.28;99472.43;106080;1259;102374;-79
2023/02/01 10:44:45;;;;;;;14.20;5.50;;;;;;;4.41;91.67;99466.44;105717;1262;99136;-78
2023/02/01 10:47:30;;;;;;;28.70;9.40;;;;;;;4.43;91.53;99464.64;105573;1259;98418;-75
2023/02/01 10:50:50;;;;;;;26.90;11.70;;;;;;;4.45;91.64;99464.46;105478;1259;99244;-76
2023/02/01 10:53:48;;;;;;;34.60;12.10;;;;;;;4.50;91.92;99464.00;105586;1259;99135;-76
2023/02/01 10:56:37;;;;;;;26.40;8.50;;;;;;;4.57;91.84;99467.10;105350;1261;101407;-76
2023/02/01 10:59:29;;;;;;;23.30;7.10;;;;;;;4.62;91.88;99463.82;105235;1257;100432;-76
2023/02/01 11:02:31;;;;;;;23.20;7.30;;;;;;;4.66;91.61;99460.91;105407;1269;97930;-77
2023/02/01 11:05:18;;;;;;;23.90;8.00;;;;;;;4.65;91.56;99461.20;105489;1257;97952;-76
2023/02/01 11:08:03;;;;;;;19.20;6.90;;;;;;;4.64;91.35;99461.73;105478;1257;97868;-76
2023/02/01 11:10:58;;;;;;;18.00;5.40;;;;;;;4.64;91.42;99461.67;105413;1261;101327;-76
2023/02/01 11:13:44;;;;;;;16.10;6.00;;;;;;;4.65;91.65;99462.41;105469;1257;99360;-75
2023/02/01 11:16:39;;;;;;;16.60;5.80;;;;;;;4.68;91.60;99461.77;105392;1257;99022;-76
2023/02/01 11:19:26;;;;;;;26.10;7.20;;;;;;;4.69;91.59;99459.63;105521;1259;98816;-77
2023/02/01 11:22:13;;;;;;;20.20;6.40;;;;;;;4.73;91.45;99454.33;105535;1257;97030;-76
2023/02/01 11:25:07;;;;;;;15.60;5.90;;;;;;;4.75;91.41;99456.46;105659;1258;102608;-79
2023/02/01 11:27:55;;;;;;;22.90;7.50;;;;;;;4.80;91.46;99449.08;106300;1259;100754;-76
2023/02/01 11:30:45;;;;;;;115.40;44.20;;;;;;;4.87;91.90;99444.11;105497;1257;98633;-75
2023/02/01 11:33:35;;;;;;;110.10;41.90;;;;;;;4.97;91.92;99444.19;105507;1257;97977;-75
2023/02/01 11:36:27;;;;;;;61.90;35.30;;;;;;;5.00;91.92;99441.77;105373;1259;98030;-76
2023/02/01 11:39:12;;;;;;;32.70;11.90;;;;;;;4.96;91.97;99438.66;105584;1259;102641;-79
2023/02/01 11:42:05;;;;;;;23.80;8.40;;;;;;;4.91;92.10;99436.59;105625;1257;99767;-83
2023/02/01 11:44:50;;;;;;;23.30;8.80;;;;;;;4.87;92.25;99436.88;106136;1261;97881;-83
2023/02/01 11:48:06;;;;;;;22.10;7.60;;;;;;;4.87;92.54;99439.92;106421;1258;98446;-81
2023/02/01 11:51:15;;;;;;;18.70;8.10;;;;;;;4.87;92.72;99436.67;105813;1260;98000;-81
2023/02/01 11:54:37;;;;;;;25.50;8.30;;;;;;;4.89;92.71;99434.91;107211;1259;102658;-77
2023/02/01 11:57:43;;;;;;;19.80;7.60;;;;;;;4.89;92.67;99429.73;105639;1259;99233;-77
2023/02/01 12:00:48;;;;;;;18.10;6.60;;;;;;;4.91;92.83;99428.25;105593;1259;98992;-77
2023/02/01 12:03:52;;;;;;;24.40;7.10;;;;;;;4.91;92.54;99426.51;105808;1259;99205;-79
2023/02/01 12:06:57;;;;;;;26.60;7.50;;;;;;;4.91;92.54;99429.59;106368;1258;99129;-81
2023/02/01 12:09:51;;;;;;;21.00;7.90;;;;;;;4.93;92.71;99427.35;106225;1260;101319;-82
2023/02/01 12:12:49;;;;;;;18.20;6.80;;;;;;;4.97;92.93;99428.31;106270;1259;99943;-82
2023/02/01 12:15:56;;;;;;;21.80;6.60;;;;;;;5.00;92.80;99433.98;106354;1259;97944;-82
2023/02/01 12:19:01;;;;;;;38.60;9.90;;;;;;;5.02;92.54;99426.97;106123;1257;97929;-80
2023/02/01 12:22:12;;;;;;;31.80;10.00;;;;;;;5.06;92.64;99427.76;105720;1259;97980;-86
2023/02/01 12:25:14;;;;;;;27.00;10.30;;;;;;;5.13;92.75;99425.13;106010;1259;103499;-75
2023/02/01 12:28:21;;;;;;;24.00;9.60;;;;;;;5.18;92.55;99422.53;105530;1259;99869;-77
2023/02/01 12:31:23;;;;;;;47.50;15.90;;;;;;;5.23;92.47;99416.50;105365;1259;99297;-78
2023/02/01 12:34:33;;;;;;;40.40;16.90;;;;;;;5.27;92.35;99411.06;105844;1257;97969;-83
2023/02/01 12:37:54;;;;;;;33.30;9.30;;;;;;;5.32;92.44;99412.52;106070;1257;97889;-83
2023/02/01 12:41:20;;;;;;;22.90;6.70;;;;;;;5.37;92.30;99410.22;106009;1259;101459;-87
2023/02/01 12:44:27;;;;;;;20.80;7.40;;;;;;;5.39;92.00;99414.77;106149;1261;100429;-82
2023/02/01 12:47:17;;;;;;;29.70;10.10;;;;;;;5.41;92.17;99419.20;106130;1261;99052;-83
2023/02/01 12:50:26;;;;;;;20.20;6.80;;;;;;;5.41;91.84;99416.30;106182;1259;97886;-83
2023/02/01 12:53:23;;;;;;;19.90;7.90;;;;;;;5.34;91.59;99415.98;106071;1257;97874;-84
2023/02/01 12:56:14;;;;;;;28.30;8.50;;;;;;;5.31;91.87;99419.21;106240;1262;101360;-83
2023/02/01 12:59:04;;;;;;;22.10;7.30;;;;;;;5.34;92.02;99422.40;106200;1259;99089;-84
2023/02/01 13:01:58;;;;;;;34.70;9.10;;;;;;;5.35;91.74;99426.17;106050;1257;100317;-78
2023/02/01 13:05:01;;;;;;;22.40;7.30;;;;;;;5.36;91.70;99421.25;106460;1260;98046;-79
2023/02/01 13:08:07;;;;;;;17.80;6.10;;;;;;;5.38;91.63;99416.28;106657;1258;97957;-81
2023/02/01 13:11:00;;;;;;;27.40;6.50;;;;;;;5.38;91.55;99420.00;106056;1257;103315;-80
2023/02/01 13:14:08;;;;;;;24.70;7.90;;;;;;;5.36;91.54;99423.41;106679;1256;99084;-80
2023/02/01 13:17:00;;;;;;;28.60;9.50;;;;;;;5.30;91.41;99419.52;106662;1259;98993;-80
2023/02/01 13:19:56;;;;;;;27.90;10.40;;;;;;;5.28;91.59;99420.52;107004;1257;95961;-80
2023/02/01 13:23:01;;;;;;;22.70;8.40;;;;;;;5.26;91.59;99417.87;105339;1257;98487;-72
2023/02/01 13:25:54;;;;;;;19.60;9.20;;;;;;;5.23;91.77;99422.98;105613;1259;101956;-73
2023/02/01 13:28:47;;;;;;;32.50;14.10;;;;;;;5.20;91.73;99423.77;105259;1259;99203;-74
2023/02/01 13:31:57;;;;;;;22.40;10.30;;;;;;;5.18;91.70;99425.75;105405;1255;98412;-74
2023/02/01 13:35:01;;;;;;;16.00;9.00;;;;;;;5.15;91.60;99422.92;105219;1259;97988;-74
2023/02/01 13:37:59;;;;;;;16.50;6.70;;;;;;;5.12;91.49;99418.67;105236;1259;99289;-73
2023/02/01 13:41:06;;;;;;;12.10;4.80;;;;;;;5.11;91.27;99426.98;105565;1259;101314;-82
2023/02/01 13:44:16;;;;;;;14.40;4.80;;;;;;;5.08;91.17;99432.05;106242;1257;100337;-79
2023/02/01 13:47:10;;;;;;;15.30;5.20;;;;;;;5.10;91.34;99425.17;105692;1261;98045;-79
2023/02/01 13:50:16;;;;;;;14.50;6.20;;;;;;;5.11;91.20;99424.52;105972;1261;98029;-79